sensor_id;sensor_type;location;lat;lon;timestamp;P1;durP1;ratioP1;P2;durP2;ratioP2
36787;SDS011;22738;45.560;9.434;2022-11-15T00:04:22;31.63;;;17.73;;
36787;SDS011;22738;45.560;9.434;2022-11-15T00:11:21;26.48;;;14.43;;
36787;SDS011;22738;45.560;9.434;2022-11-15T00:18:20;29.10;;;14.35;;
36787;SDS011;22738;45.560;9.434;2022-11-15T00:25:20;29.98;;;15.98;;
36787;SDS011;22738;45.560;9.434;2022-11-15T00:32:19;28.38;;;14.82;;
36787;SDS011;22738;45.560;9.434;2022-11-15T00:39:19;27.17;;;15.90;;
36787;SDS011;22738;45.560;9.434;2022-11-15T00:46:18;29.95;;;14.93;;
36787;SDS011;22738;45.560;9.434;2022-11-15T00:53:18;26.08;;;15.02;;
36787;SDS011;22738;45.560;9.434;2022-11-15T01:00:17;31.65;;;16.33;;
36787;SDS011;22738;45.560;9.434;2022-11-15T01:07:17;32.92;;;16.65;;
36787;SDS011;22738;45.560;9.434;2022-11-15T01:14:16;30.90;;;15.82;;
36787;SDS011;22738;45.560;9.434;2022-11-15T01:21:17;38.05;;;18.63;;
36787;SDS011;22738;45.560;9.434;2022-11-15T01:28:18;38.08;;;18.15;;
36787;SDS011;22738;45.560;9.434;2022-11-15T01:35:17;35.55;;;17.80;;
36787;SDS011;22738;45.560;9.434;2022-11-15T01:42:16;36.70;;;17.27;;
36787;SDS011;22738;45.560;9.434;2022-11-15T01:49:19;26.52;;;15.07;;
36787;SDS011;22738;45.560;9.434;2022-11-15T01:56:23;26.30;;;15.30;;
36787;SDS011;22738;45.560;9.434;2022-11-15T02:03:32;28.38;;;16.65;;
36787;SDS011;22738;45.560;9.434;2022-11-15T02:10:38;34.13;;;16.85;;
36787;SDS011;22738;45.560;9.434;2022-11-15T02:47:03;27.05;;;14.65;;
36787;SDS011;22738;45.560;9.434;2022-11-15T02:54:15;27.52;;;14.63;;
36787;SDS011;22738;45.560;9.434;2022-11-15T03:15:54;26.92;;;14.07;;
36787;SDS011;22738;45.560;9.434;2022-11-15T03:23:04;29.35;;;14.95;;
36787;SDS011;22738;45.560;9.434;2022-11-15T03:30:07;30.52;;;14.57;;
36787;SDS011;22738;45.560;9.434;2022-11-15T03:37:07;28.15;;;14.90;;
36787;SDS011;22738;45.560;9.434;2022-11-15T03:44:16;32.92;;;15.00;;
36787;SDS011;22738;45.560;9.434;2022-11-15T03:51:37;29.23;;;15.32;;
36787;SDS011;22738;45.560;9.434;2022-11-15T03:58:37;25.67;;;13.52;;
36787;SDS011;22738;45.560;9.434;2022-11-15T04:05:36;29.45;;;13.98;;
36787;SDS011;22738;45.560;9.434;2022-11-15T04:12:37;28.80;;;14.13;;
36787;SDS011;22738;45.560;9.434;2022-11-15T04:19:42;29.52;;;14.00;;
36787;SDS011;22738;45.560;9.434;2022-11-15T04:27:00;28.02;;;13.13;;
36787;SDS011;22738;45.560;9.434;2022-11-15T04:34:00;30.75;;;14.13;;
36787;SDS011;22738;45.560;9.434;2022-11-15T04:41:00;28.27;;;13.32;;
36787;SDS011;22738;45.560;9.434;2022-11-15T04:48:00;27.20;;;13.07;;
36787;SDS011;22738;45.560;9.434;2022-11-15T04:55:00;24.92;;;12.43;;
36787;SDS011;22738;45.560;9.434;2022-11-15T05:02:00;24.00;;;12.15;;
36787;SDS011;22738;45.560;9.434;2022-11-15T05:08:59;26.25;;;11.85;;
36787;SDS011;22738;45.560;9.434;2022-11-15T05:15:59;22.90;;;12.32;;
36787;SDS011;22738;45.560;9.434;2022-11-15T05:22:58;20.17;;;11.07;;
36787;SDS011;22738;45.560;9.434;2022-11-15T05:29:58;21.10;;;11.48;;
36787;SDS011;22738;45.560;9.434;2022-11-15T05:36:57;23.45;;;11.43;;
36787;SDS011;22738;45.560;9.434;2022-11-15T05:43:58;26.50;;;12.40;;
36787;SDS011;22738;45.560;9.434;2022-11-15T05:51:00;26.70;;;12.55;;
36787;SDS011;22738;45.560;9.434;2022-11-15T05:58:02;23.52;;;12.20;;
36787;SDS011;22738;45.560;9.434;2022-11-15T06:05:02;23.00;;;12.07;;
36787;SDS011;22738;45.560;9.434;2022-11-15T06:12:02;26.58;;;12.23;;
36787;SDS011;22738;45.560;9.434;2022-11-15T06:19:01;29.35;;;14.27;;
36787;SDS011;22738;45.560;9.434;2022-11-15T06:26:01;29.15;;;16.73;;
36787;SDS011;22738;45.560;9.434;2022-11-15T06:33:03;43.97;;;19.92;;
36787;SDS011;22738;45.560;9.434;2022-11-15T06:40:04;42.95;;;20.83;;
36787;SDS011;22738;45.560;9.434;2022-11-15T06:47:04;39.00;;;21.63;;
36787;SDS011;22738;45.560;9.434;2022-11-15T06:54:04;41.10;;;21.88;;
36787;SDS011;22738;45.560;9.434;2022-11-15T07:01:05;34.95;;;21.85;;
36787;SDS011;22738;45.560;9.434;2022-11-15T07:08:07;40.45;;;21.60;;
36787;SDS011;22738;45.560;9.434;2022-11-15T07:15:07;41.75;;;20.13;;
36787;SDS011;22738;45.560;9.434;2022-11-15T07:22:09;45.22;;;23.08;;
36787;SDS011;22738;45.560;9.434;2022-11-15T07:29:09;38.97;;;21.80;;
36787;SDS011;22738;45.560;9.434;2022-11-15T07:36:09;40.72;;;20.55;;
36787;SDS011;22738;45.560;9.434;2022-11-15T07:43:10;39.65;;;21.77;;
36787;SDS011;22738;45.560;9.434;2022-11-15T07:50:09;46.42;;;21.88;;
36787;SDS011;22738;45.560;9.434;2022-11-15T07:57:09;43.42;;;23.73;;
36787;SDS011;22738;45.560;9.434;2022-11-15T08:04:10;45.10;;;23.27;;
36787;SDS011;22738;45.560;9.434;2022-11-15T08:11:10;40.33;;;20.67;;
36787;SDS011;22738;45.560;9.434;2022-11-15T08:18:10;43.95;;;24.55;;
36787;SDS011;22738;45.560;9.434;2022-11-15T08:25:12;47.63;;;21.73;;
36787;SDS011;22738;45.560;9.434;2022-11-15T08:32:12;35.65;;;19.92;;
36787;SDS011;22738;45.560;9.434;2022-11-15T08:39:11;38.42;;;20.38;;
36787;SDS011;22738;45.560;9.434;2022-11-15T08:46:14;38.22;;;20.80;;
36787;SDS011;22738;45.560;9.434;2022-11-15T08:53:13;34.28;;;18.42;;
36787;SDS011;22738;45.560;9.434;2022-11-15T09:00:13;32.65;;;18.42;;
36787;SDS011;22738;45.560;9.434;2022-11-15T09:07:15;38.75;;;19.45;;
36787;SDS011;22738;45.560;9.434;2022-11-15T09:14:15;33.83;;;15.65;;
36787;SDS011;22738;45.560;9.434;2022-11-15T09:21:17;33.38;;;15.77;;
36787;SDS011;22738;45.560;9.434;2022-11-15T09:28:17;21.45;;;12.27;;
36787;SDS011;22738;45.560;9.434;2022-11-15T09:35:17;24.73;;;12.45;;
36787;SDS011;22738;45.560;9.434;2022-11-15T09:49:32;22.38;;;11.65;;
36787;SDS011;22738;45.560;9.434;2022-11-15T09:56:31;19.88;;;11.27;;
36787;SDS011;22738;45.560;9.434;2022-11-15T10:03:16;23.58;;;11.88;;
36787;SDS011;22738;45.560;9.434;2022-11-15T10:10:08;24.38;;;12.52;;
36787;SDS011;22738;45.560;9.434;2022-11-15T10:23:57;26.92;;;13.50;;
36787;SDS011;22738;45.560;9.434;2022-11-15T10:30:40;24.45;;;11.88;;
36787;SDS011;22738;45.560;9.434;2022-11-15T10:37:45;22.48;;;12.60;;
36787;SDS011;22738;45.560;9.434;2022-11-15T10:44:27;19.00;;;11.35;;
36787;SDS011;22738;45.560;9.434;2022-11-15T10:51:19;22.00;;;11.95;;
36787;SDS011;22738;45.560;9.434;2022-11-15T10:58:18;23.25;;;11.57;;
36787;SDS011;22738;45.560;9.434;2022-11-15T11:05:01;20.50;;;10.95;;
36787;SDS011;22738;45.560;9.434;2022-11-15T11:11:44;24.08;;;12.20;;
36787;SDS011;22738;45.560;9.434;2022-11-15T11:18:34;19.52;;;10.02;;
36787;SDS011;22738;45.560;9.434;2022-11-15T11:25:28;19.40;;;10.65;;
36787;SDS011;22738;45.560;9.434;2022-11-15T11:32:42;24.98;;;11.77;;
36787;SDS011;22738;45.560;9.434;2022-11-15T11:54:00;23.92;;;12.27;;
36787;SDS011;22738;45.560;9.434;2022-11-15T12:00:48;19.67;;;10.27;;
36787;SDS011;22738;45.560;9.434;2022-11-15T12:07:33;28.50;;;13.18;;
36787;SDS011;22738;45.560;9.434;2022-11-15T12:21:47;23.13;;;11.45;;
36787;SDS011;22738;45.560;9.434;2022-11-15T12:28:40;22.88;;;11.82;;
36787;SDS011;22738;45.560;9.434;2022-11-15T12:35:39;20.40;;;10.73;;
36787;SDS011;22738;45.560;9.434;2022-11-15T13:03:12;20.92;;;10.65;;
36787;SDS011;22738;45.560;9.434;2022-11-15T13:09:58;20.20;;;10.45;;
36787;SDS011;22738;45.560;9.434;2022-11-15T13:16:39;21.08;;;10.40;;
36787;SDS011;22738;45.560;9.434;2022-11-15T13:23:22;22.58;;;11.23;;
36787;SDS011;22738;45.560;9.434;2022-11-15T13:30:04;19.65;;;10.63;;
36787;SDS011;22738;45.560;9.434;2022-11-15T13:36:45;16.58;;;9.07;;
36787;SDS011;22738;45.560;9.434;2022-11-15T13:43:36;18.10;;;9.70;;
36787;SDS011;22738;45.560;9.434;2022-11-15T13:50:17;20.20;;;10.20;;
36787;SDS011;22738;45.560;9.434;2022-11-15T13:57:21;30.55;;;10.35;;
36787;SDS011;22738;45.560;9.434;2022-11-15T14:04:05;22.80;;;10.03;;
36787;SDS011;22738;45.560;9.434;2022-11-15T14:11:24;18.50;;;9.88;;
36787;SDS011;22738;45.560;9.434;2022-11-15T14:18:38;18.13;;;9.50;;
36787;SDS011;22738;45.560;9.434;2022-11-15T14:25:40;23.83;;;11.70;;
36787;SDS011;22738;45.560;9.434;2022-11-15T14:32:44;19.65;;;10.25;;
36787;SDS011;22738;45.560;9.434;2022-11-15T14:39:27;24.05;;;11.80;;
36787;SDS011;22738;45.560;9.434;2022-11-15T14:46:08;18.70;;;9.10;;
36787;SDS011;22738;45.560;9.434;2022-11-15T14:52:50;13.73;;;7.88;;
36787;SDS011;22738;45.560;9.434;2022-11-15T14:59:33;14.57;;;8.43;;
36787;SDS011;22738;45.560;9.434;2022-11-15T15:06:14;17.33;;;9.52;;
36787;SDS011;22738;45.560;9.434;2022-11-15T15:12:55;17.20;;;9.20;;
36787;SDS011;22738;45.560;9.434;2022-11-15T15:19:37;19.95;;;8.93;;
36787;SDS011;22738;45.560;9.434;2022-11-15T15:26:19;16.95;;;10.10;;
36787;SDS011;22738;45.560;9.434;2022-11-15T15:33:04;18.40;;;10.75;;
36787;SDS011;22738;45.560;9.434;2022-11-15T15:39:45;18.90;;;10.50;;
36787;SDS011;22738;45.560;9.434;2022-11-15T15:46:26;17.60;;;10.35;;
36787;SDS011;22738;45.560;9.434;2022-11-15T15:53:08;18.63;;;10.80;;
36787;SDS011;22738;45.560;9.434;2022-11-15T15:59:52;23.07;;;12.03;;
36787;SDS011;22738;45.560;9.434;2022-11-15T16:06:39;17.80;;;9.90;;
36787;SDS011;22738;45.560;9.434;2022-11-15T16:13:27;23.42;;;10.50;;
36787;SDS011;22738;45.560;9.434;2022-11-15T16:20:15;20.40;;;9.88;;
36787;SDS011;22738;45.560;9.434;2022-11-15T16:27:19;17.77;;;9.18;;
36787;SDS011;22738;45.560;9.434;2022-11-15T16:34:02;21.05;;;10.52;;
36787;SDS011;22738;45.560;9.434;2022-11-15T16:40:44;23.05;;;11.25;;
36787;SDS011;22738;45.560;9.434;2022-11-15T16:47:25;21.50;;;10.65;;
36787;SDS011;22738;45.560;9.434;2022-11-15T16:54:07;26.02;;;12.13;;
36787;SDS011;22738;45.560;9.434;2022-11-15T17:00:50;22.10;;;10.60;;
36787;SDS011;22738;45.560;9.434;2022-11-15T17:07:35;18.02;;;10.65;;
36787;SDS011;22738;45.560;9.434;2022-11-15T17:14:16;18.08;;;8.90;;
36787;SDS011;22738;45.560;9.434;2022-11-15T17:21:02;18.30;;;10.02;;
36787;SDS011;22738;45.560;9.434;2022-11-15T17:27:46;19.25;;;9.77;;
36787;SDS011;22738;45.560;9.434;2022-11-15T17:34:27;20.08;;;11.00;;
36787;SDS011;22738;45.560;9.434;2022-11-15T17:41:13;18.70;;;10.90;;
36787;SDS011;22738;45.560;9.434;2022-11-15T17:47:58;20.80;;;10.70;;
36787;SDS011;22738;45.560;9.434;2022-11-15T17:54:39;20.50;;;11.20;;
36787;SDS011;22738;45.560;9.434;2022-11-15T18:01:21;22.38;;;11.85;;
36787;SDS011;22738;45.560;9.434;2022-11-15T18:08:06;17.73;;;10.45;;
36787;SDS011;22738;45.560;9.434;2022-11-15T18:14:48;21.58;;;11.25;;
36787;SDS011;22738;45.560;9.434;2022-11-15T18:21:30;20.00;;;11.13;;
36787;SDS011;22738;45.560;9.434;2022-11-15T18:28:13;24.45;;;13.85;;
36787;SDS011;22738;45.560;9.434;2022-11-15T18:34:54;22.33;;;11.27;;
36787;SDS011;22738;45.560;9.434;2022-11-15T18:41:38;20.52;;;11.40;;
36787;SDS011;22738;45.560;9.434;2022-11-15T18:48:21;20.40;;;11.63;;
36787;SDS011;22738;45.560;9.434;2022-11-15T18:55:03;18.83;;;10.20;;
36787;SDS011;22738;45.560;9.434;2022-11-15T19:01:45;24.88;;;12.68;;
36787;SDS011;22738;45.560;9.434;2022-11-15T19:08:27;22.52;;;12.35;;
36787;SDS011;22738;45.560;9.434;2022-11-15T19:15:08;23.17;;;12.43;;
36787;SDS011;22738;45.560;9.434;2022-11-15T19:21:51;29.07;;;13.13;;
36787;SDS011;22738;45.560;9.434;2022-11-15T19:28:34;23.13;;;12.40;;
36787;SDS011;22738;45.560;9.434;2022-11-15T19:35:15;23.75;;;12.77;;
36787;SDS011;22738;45.560;9.434;2022-11-15T19:41:56;22.38;;;11.40;;
36787;SDS011;22738;45.560;9.434;2022-11-15T19:48:37;24.67;;;12.20;;
36787;SDS011;22738;45.560;9.434;2022-11-15T19:55:21;25.73;;;12.73;;
36787;SDS011;22738;45.560;9.434;2022-11-15T20:02:02;25.58;;;12.60;;
36787;SDS011;22738;45.560;9.434;2022-11-15T20:08:44;26.65;;;13.70;;
36787;SDS011;22738;45.560;9.434;2022-11-15T20:15:26;31.03;;;14.73;;
36787;SDS011;22738;45.560;9.434;2022-11-15T20:22:07;33.20;;;15.55;;
36787;SDS011;22738;45.560;9.434;2022-11-15T20:28:48;34.08;;;14.80;;
36787;SDS011;22738;45.560;9.434;2022-11-15T20:35:29;30.73;;;14.15;;
36787;SDS011;22738;45.560;9.434;2022-11-15T20:42:10;34.22;;;15.70;;
36787;SDS011;22738;45.560;9.434;2022-11-15T20:48:51;26.45;;;13.45;;
36787;SDS011;22738;45.560;9.434;2022-11-15T20:55:32;28.70;;;15.00;;
36787;SDS011;22738;45.560;9.434;2022-11-15T21:02:18;30.17;;;15.90;;
36787;SDS011;22738;45.560;9.434;2022-11-15T21:08:59;27.63;;;14.45;;
36787;SDS011;22738;45.560;9.434;2022-11-15T21:15:58;32.22;;;15.95;;
36787;SDS011;22738;45.560;9.434;2022-11-15T21:22:40;31.15;;;15.40;;
36787;SDS011;22738;45.560;9.434;2022-11-15T21:29:32;28.30;;;15.50;;
36787;SDS011;22738;45.560;9.434;2022-11-15T21:43:09;31.42;;;13.95;;
36787;SDS011;22738;45.560;9.434;2022-11-15T21:49:50;24.95;;;13.10;;
36787;SDS011;22738;45.560;9.434;2022-11-15T21:56:31;29.05;;;13.65;;
36787;SDS011;22738;45.560;9.434;2022-11-15T22:03:13;23.77;;;12.88;;
36787;SDS011;22738;45.560;9.434;2022-11-15T22:09:57;24.58;;;12.93;;
36787;SDS011;22738;45.560;9.434;2022-11-15T22:16:39;28.27;;;12.80;;
36787;SDS011;22738;45.560;9.434;2022-11-15T22:23:20;28.23;;;12.43;;
36787;SDS011;22738;45.560;9.434;2022-11-15T22:30:04;25.55;;;13.13;;
36787;SDS011;22738;45.560;9.434;2022-11-15T22:36:50;25.17;;;12.43;;
36787;SDS011;22738;45.560;9.434;2022-11-15T22:43:36;31.58;;;14.60;;
36787;SDS011;22738;45.560;9.434;2022-11-15T22:50:27;24.35;;;12.90;;
36787;SDS011;22738;45.560;9.434;2022-11-15T22:57:14;25.33;;;13.25;;
36787;SDS011;22738;45.560;9.434;2022-11-15T23:03:55;28.42;;;14.63;;
36787;SDS011;22738;45.560;9.434;2022-11-15T23:10:37;26.20;;;13.63;;
36787;SDS011;22738;45.560;9.434;2022-11-15T23:17:37;25.77;;;13.45;;
36787;SDS011;22738;45.560;9.434;2022-11-15T23:31:14;24.83;;;13.57;;
36787;SDS011;22738;45.560;9.434;2022-11-15T23:38:15;30.80;;;15.00;;
36787;SDS011;22738;45.560;9.434;2022-11-15T23:44:58;25.52;;;13.40;;
36787;SDS011;22738;45.560;9.434;2022-11-15T23:51:39;23.30;;;12.55;;
36787;SDS011;22738;45.560;9.434;2022-11-15T23:58:20;28.38;;;13.77;;
